sensor_id;sensor_type;location;lat;lon;timestamp;temperature;humidity
49218;DHT22;35045;51.194;7.268;2023-07-09T00:02:11;24.00;84.10
49218;DHT22;35045;51.194;7.268;2023-07-09T00:04:37;23.90;82.40
49218;DHT22;35045;51.194;7.268;2023-07-09T00:07:03;23.80;82.70
49218;DHT22;35045;51.194;7.268;2023-07-09T00:09:29;23.70;83.00
49218;DHT22;35045;51.194;7.268;2023-07-09T00:11:55;23.60;83.30
49218;DHT22;35045;51.194;7.268;2023-07-09T00:14:22;23.50;83.50
49218;DHT22;35045;51.194;7.268;2023-07-09T00:16:48;23.50;83.70
49218;DHT22;35045;51.194;7.268;2023-07-09T00:19:19;23.50;83.90
49218;DHT22;35045;51.194;7.268;2023-07-09T00:21:47;23.40;84.10
49218;DHT22;35045;51.194;7.268;2023-07-09T00:24:13;23.40;84.00
49218;DHT22;35045;51.194;7.268;2023-07-09T00:26:39;23.40;84.40
49218;DHT22;35045;51.194;7.268;2023-07-09T00:29:09;23.30;85.40
49218;DHT22;35045;51.194;7.268;2023-07-09T00:31:36;23.20;85.00
49218;DHT22;35045;51.194;7.268;2023-07-09T00:34:10;23.20;85.30
49218;DHT22;35045;51.194;7.268;2023-07-09T00:36:39;23.20;85.60
49218;DHT22;35045;51.194;7.268;2023-07-09T00:39:12;23.00;86.00
49218;DHT22;35045;51.194;7.268;2023-07-09T00:41:40;23.00;86.50
49218;DHT22;35045;51.194;7.268;2023-07-09T00:49:26;23.10;86.50
49218;DHT22;35045;51.194;7.268;2023-07-09T00:51:55;23.20;85.90
49218;DHT22;35045;51.194;7.268;2023-07-09T00:54:28;23.20;86.60
49218;DHT22;35045;51.194;7.268;2023-07-09T00:56:57;23.20;86.40
49218;DHT22;35045;51.194;7.268;2023-07-09T00:59:25;23.20;86.80
49218;DHT22;35045;51.194;7.268;2023-07-09T01:01:54;23.20;87.10
49218;DHT22;35045;51.194;7.268;2023-07-09T01:04:21;23.20;87.70
49218;DHT22;35045;51.194;7.268;2023-07-09T01:06:50;23.20;88.10
49218;DHT22;35045;51.194;7.268;2023-07-09T01:09:17;23.10;88.10
49218;DHT22;35045;51.194;7.268;2023-07-09T01:11:43;23.10;88.50
49218;DHT22;35045;51.194;7.268;2023-07-09T01:14:10;23.00;88.40
49218;DHT22;35045;51.194;7.268;2023-07-09T01:16:38;22.90;89.10
49218;DHT22;35045;51.194;7.268;2023-07-09T01:19:05;22.80;89.40
49218;DHT22;35045;51.194;7.268;2023-07-09T01:21:32;22.80;89.10
49218;DHT22;35045;51.194;7.268;2023-07-09T01:23:58;22.80;89.70
49218;DHT22;35045;51.194;7.268;2023-07-09T01:26:25;22.80;90.00
49218;DHT22;35045;51.194;7.268;2023-07-09T01:28:52;22.70;90.20
49218;DHT22;35045;51.194;7.268;2023-07-09T01:31:19;22.80;90.30
49218;DHT22;35045;51.194;7.268;2023-07-09T01:33:46;22.70;90.40
49218;DHT22;35045;51.194;7.268;2023-07-09T01:36:13;22.70;90.70
49218;DHT22;35045;51.194;7.268;2023-07-09T01:38:40;22.60;90.70
49218;DHT22;35045;51.194;7.268;2023-07-09T01:41:06;22.60;90.90
49218;DHT22;35045;51.194;7.268;2023-07-09T01:43:33;22.60;90.90
49218;DHT22;35045;51.194;7.268;2023-07-09T01:45:59;22.60;91.40
49218;DHT22;35045;51.194;7.268;2023-07-09T01:48:26;22.60;91.60
49218;DHT22;35045;51.194;7.268;2023-07-09T01:50:52;22.60;91.50
49218;DHT22;35045;51.194;7.268;2023-07-09T01:53:20;22.50;91.40
49218;DHT22;35045;51.194;7.268;2023-07-09T01:55:49;22.50;91.90
49218;DHT22;35045;51.194;7.268;2023-07-09T01:58:16;22.50;92.40
49218;DHT22;35045;51.194;7.268;2023-07-09T02:00:42;22.40;92.40
49218;DHT22;35045;51.194;7.268;2023-07-09T02:03:08;22.30;92.50
49218;DHT22;35045;51.194;7.268;2023-07-09T02:05:34;22.40;92.70
49218;DHT22;35045;51.194;7.268;2023-07-09T02:08:01;22.30;93.10
49218;DHT22;35045;51.194;7.268;2023-07-09T02:10:27;22.30;93.20
49218;DHT22;35045;51.194;7.268;2023-07-09T02:12:53;22.30;93.40
49218;DHT22;35045;51.194;7.268;2023-07-09T02:15:19;22.20;94.30
49218;DHT22;35045;51.194;7.268;2023-07-09T02:17:45;22.20;94.00
49218;DHT22;35045;51.194;7.268;2023-07-09T02:20:12;22.10;94.10
49218;DHT22;35045;51.194;7.268;2023-07-09T02:22:38;22.10;94.10
49218;DHT22;35045;51.194;7.268;2023-07-09T02:25:05;22.00;94.30
49218;DHT22;35045;51.194;7.268;2023-07-09T02:27:31;22.00;94.40
49218;DHT22;35045;51.194;7.268;2023-07-09T02:29:58;22.00;94.70
49218;DHT22;35045;51.194;7.268;2023-07-09T02:32:27;21.90;94.80
49218;DHT22;35045;51.194;7.268;2023-07-09T02:34:53;22.00;94.90
49218;DHT22;35045;51.194;7.268;2023-07-09T02:37:20;21.90;95.30
49218;DHT22;35045;51.194;7.268;2023-07-09T02:39:47;21.90;95.40
49218;DHT22;35045;51.194;7.268;2023-07-09T02:42:14;21.90;95.80
49218;DHT22;35045;51.194;7.268;2023-07-09T02:44:41;21.90;96.20
49218;DHT22;35045;51.194;7.268;2023-07-09T02:47:08;21.80;96.00
49218;DHT22;35045;51.194;7.268;2023-07-09T02:49:34;21.80;96.60
49218;DHT22;35045;51.194;7.268;2023-07-09T02:52:00;21.80;96.50
49218;DHT22;35045;51.194;7.268;2023-07-09T02:54:26;21.80;96.20
49218;DHT22;35045;51.194;7.268;2023-07-09T02:56:52;21.80;96.60
49218;DHT22;35045;51.194;7.268;2023-07-09T02:59:18;21.80;97.00
49218;DHT22;35045;51.194;7.268;2023-07-09T03:01:44;21.70;96.70
49218;DHT22;35045;51.194;7.268;2023-07-09T03:04:10;21.70;97.50
49218;DHT22;35045;51.194;7.268;2023-07-09T03:06:36;21.60;97.20
49218;DHT22;35045;51.194;7.268;2023-07-09T03:09:04;21.60;97.20
49218;DHT22;35045;51.194;7.268;2023-07-09T03:11:31;21.60;97.90
49218;DHT22;35045;51.194;7.268;2023-07-09T03:13:57;21.50;98.00
49218;DHT22;35045;51.194;7.268;2023-07-09T03:16:25;21.50;98.20
49218;DHT22;35045;51.194;7.268;2023-07-09T03:18:51;21.40;98.10
49218;DHT22;35045;51.194;7.268;2023-07-09T03:21:17;21.40;98.20
49218;DHT22;35045;51.194;7.268;2023-07-09T03:23:44;21.50;98.20
49218;DHT22;35045;51.194;7.268;2023-07-09T03:26:10;21.50;98.50
49218;DHT22;35045;51.194;7.268;2023-07-09T03:28:36;21.50;98.50
49218;DHT22;35045;51.194;7.268;2023-07-09T03:31:03;21.50;98.40
49218;DHT22;35045;51.194;7.268;2023-07-09T03:33:29;21.50;98.50
49218;DHT22;35045;51.194;7.268;2023-07-09T03:35:55;21.50;98.60
49218;DHT22;35045;51.194;7.268;2023-07-09T03:38:21;21.50;98.50
49218;DHT22;35045;51.194;7.268;2023-07-09T03:40:51;21.50;98.40
49218;DHT22;35045;51.194;7.268;2023-07-09T03:43:17;21.50;98.50
49218;DHT22;35045;51.194;7.268;2023-07-09T03:45:43;21.50;98.90
49218;DHT22;35045;51.194;7.268;2023-07-09T03:48:09;21.50;99.00
49218;DHT22;35045;51.194;7.268;2023-07-09T03:50:36;21.50;99.20
49218;DHT22;35045;51.194;7.268;2023-07-09T03:53:02;21.50;99.10
49218;DHT22;35045;51.194;7.268;2023-07-09T03:55:28;21.50;99.20
49218;DHT22;35045;51.194;7.268;2023-07-09T03:57:54;21.50;99.60
49218;DHT22;35045;51.194;7.268;2023-07-09T04:00:20;21.50;99.80
49218;DHT22;35045;51.194;7.268;2023-07-09T04:02:46;21.50;99.80
49218;DHT22;35045;51.194;7.268;2023-07-09T04:05:13;21.50;99.90
49218;DHT22;35045;51.194;7.268;2023-07-09T04:07:39;21.50;99.90
49218;DHT22;35045;51.194;7.268;2023-07-09T04:10:05;21.50;99.90
49218;DHT22;35045;51.194;7.268;2023-07-09T04:12:31;21.50;99.70
49218;DHT22;35045;51.194;7.268;2023-07-09T04:14:57;21.60;99.80
49218;DHT22;35045;51.194;7.268;2023-07-09T04:17:23;21.60;99.70
49218;DHT22;35045;51.194;7.268;2023-07-09T04:19:50;21.60;99.60
49218;DHT22;35045;51.194;7.268;2023-07-09T04:22:16;21.60;99.50
49218;DHT22;35045;51.194;7.268;2023-07-09T04:24:42;21.70;99.50
49218;DHT22;35045;51.194;7.268;2023-07-09T04:27:09;21.70;99.50
49218;DHT22;35045;51.194;7.268;2023-07-09T04:29:35;21.80;99.60
49218;DHT22;35045;51.194;7.268;2023-07-09T04:32:02;21.80;99.70
49218;DHT22;35045;51.194;7.268;2023-07-09T04:34:28;21.80;99.90
49218;DHT22;35045;51.194;7.268;2023-07-09T04:36:54;21.90;99.70
49218;DHT22;35045;51.194;7.268;2023-07-09T04:39:20;21.90;99.50
49218;DHT22;35045;51.194;7.268;2023-07-09T04:41:47;22.00;99.50
49218;DHT22;35045;51.194;7.268;2023-07-09T04:44:13;22.00;99.60
49218;DHT22;35045;51.194;7.268;2023-07-09T04:46:39;22.00;99.50
49218;DHT22;35045;51.194;7.268;2023-07-09T04:49:05;22.00;99.50
49218;DHT22;35045;51.194;7.268;2023-07-09T04:51:31;22.00;99.50
49218;DHT22;35045;51.194;7.268;2023-07-09T04:53:57;22.00;99.40
49218;DHT22;35045;51.194;7.268;2023-07-09T04:56:23;22.00;99.30
49218;DHT22;35045;51.194;7.268;2023-07-09T04:58:49;22.10;99.50
49218;DHT22;35045;51.194;7.268;2023-07-09T05:01:15;22.20;99.20
49218;DHT22;35045;51.194;7.268;2023-07-09T05:03:41;22.20;99.80
49218;DHT22;35045;51.194;7.268;2023-07-09T05:06:07;22.40;99.80
49218;DHT22;35045;51.194;7.268;2023-07-09T05:08:33;22.40;99.60
49218;DHT22;35045;51.194;7.268;2023-07-09T05:10:59;22.40;99.60
49218;DHT22;35045;51.194;7.268;2023-07-09T05:13:25;22.50;99.70
49218;DHT22;35045;51.194;7.268;2023-07-09T05:15:52;22.60;99.40
49218;DHT22;35045;51.194;7.268;2023-07-09T05:18:18;22.70;99.20
49218;DHT22;35045;51.194;7.268;2023-07-09T05:20:45;22.80;98.90
49218;DHT22;35045;51.194;7.268;2023-07-09T05:23:12;22.90;98.80
49218;DHT22;35045;51.194;7.268;2023-07-09T05:25:38;22.90;98.60
49218;DHT22;35045;51.194;7.268;2023-07-09T05:28:04;22.90;98.50
49218;DHT22;35045;51.194;7.268;2023-07-09T05:30:30;23.00;98.70
49218;DHT22;35045;51.194;7.268;2023-07-09T05:32:56;23.10;98.90
49218;DHT22;35045;51.194;7.268;2023-07-09T05:35:24;23.10;98.30
49218;DHT22;35045;51.194;7.268;2023-07-09T05:37:54;23.10;98.50
49218;DHT22;35045;51.194;7.268;2023-07-09T05:40:20;23.20;98.50
49218;DHT22;35045;51.194;7.268;2023-07-09T05:42:47;23.20;98.30
49218;DHT22;35045;51.194;7.268;2023-07-09T05:45:14;23.20;97.90
49218;DHT22;35045;51.194;7.268;2023-07-09T05:47:40;23.40;97.80
49218;DHT22;35045;51.194;7.268;2023-07-09T05:50:06;23.50;97.90
49218;DHT22;35045;51.194;7.268;2023-07-09T05:52:32;23.60;97.60
49218;DHT22;35045;51.194;7.268;2023-07-09T05:54:58;23.70;97.40
49218;DHT22;35045;51.194;7.268;2023-07-09T05:57:25;23.80;97.40
49218;DHT22;35045;51.194;7.268;2023-07-09T05:59:51;23.90;97.00
49218;DHT22;35045;51.194;7.268;2023-07-09T06:02:18;24.00;96.90
49218;DHT22;35045;51.194;7.268;2023-07-09T06:04:45;24.10;96.80
49218;DHT22;35045;51.194;7.268;2023-07-09T06:07:12;24.20;96.80
49218;DHT22;35045;51.194;7.268;2023-07-09T06:09:39;24.20;96.60
49218;DHT22;35045;51.194;7.268;2023-07-09T06:12:05;24.30;96.70
49218;DHT22;35045;51.194;7.268;2023-07-09T06:14:32;24.40;96.50
49218;DHT22;35045;51.194;7.268;2023-07-09T06:16:58;24.40;96.20
49218;DHT22;35045;51.194;7.268;2023-07-09T06:19:24;24.50;96.40
49218;DHT22;35045;51.194;7.268;2023-07-09T06:21:50;24.60;96.40
49218;DHT22;35045;51.194;7.268;2023-07-09T06:24:17;24.60;96.50
49218;DHT22;35045;51.194;7.268;2023-07-09T06:26:43;24.70;96.10
49218;DHT22;35045;51.194;7.268;2023-07-09T06:29:09;24.70;96.20
49218;DHT22;35045;51.194;7.268;2023-07-09T06:31:35;24.80;96.20
49218;DHT22;35045;51.194;7.268;2023-07-09T06:34:03;24.80;96.20
49218;DHT22;35045;51.194;7.268;2023-07-09T06:36:29;24.90;96.40
49218;DHT22;35045;51.194;7.268;2023-07-09T06:38:55;25.00;96.20
49218;DHT22;35045;51.194;7.268;2023-07-09T06:41:21;25.20;95.90
49218;DHT22;35045;51.194;7.268;2023-07-09T06:43:47;25.30;96.00
49218;DHT22;35045;51.194;7.268;2023-07-09T06:46:13;25.30;95.80
49218;DHT22;35045;51.194;7.268;2023-07-09T06:48:40;25.40;95.70
49218;DHT22;35045;51.194;7.268;2023-07-09T06:51:06;25.50;95.80
49218;DHT22;35045;51.194;7.268;2023-07-09T06:53:32;25.60;95.80
49218;DHT22;35045;51.194;7.268;2023-07-09T06:55:58;25.60;95.80
49218;DHT22;35045;51.194;7.268;2023-07-09T06:58:28;25.80;95.90
49218;DHT22;35045;51.194;7.268;2023-07-09T07:00:57;25.80;95.70
49218;DHT22;35045;51.194;7.268;2023-07-09T07:03:23;25.90;95.90
49218;DHT22;35045;51.194;7.268;2023-07-09T07:05:50;25.90;95.70
49218;DHT22;35045;51.194;7.268;2023-07-09T07:08:17;26.10;95.50
49218;DHT22;35045;51.194;7.268;2023-07-09T07:10:44;26.20;95.50
49218;DHT22;35045;51.194;7.268;2023-07-09T07:13:10;26.30;95.30
49218;DHT22;35045;51.194;7.268;2023-07-09T07:15:37;26.40;95.30
49218;DHT22;35045;51.194;7.268;2023-07-09T07:18:03;26.50;95.30
49218;DHT22;35045;51.194;7.268;2023-07-09T07:20:30;26.60;95.50
49218;DHT22;35045;51.194;7.268;2023-07-09T07:22:56;26.70;95.40
49218;DHT22;35045;51.194;7.268;2023-07-09T07:25:23;26.80;94.70
49218;DHT22;35045;51.194;7.268;2023-07-09T07:27:49;26.90;94.70
49218;DHT22;35045;51.194;7.268;2023-07-09T07:30:15;27.00;94.70
49218;DHT22;35045;51.194;7.268;2023-07-09T07:32:43;27.10;94.70
49218;DHT22;35045;51.194;7.268;2023-07-09T07:35:09;27.20;94.60
49218;DHT22;35045;51.194;7.268;2023-07-09T07:37:35;27.30;94.60
49218;DHT22;35045;51.194;7.268;2023-07-09T07:40:01;27.40;94.30
49218;DHT22;35045;51.194;7.268;2023-07-09T07:42:27;27.50;93.70
49218;DHT22;35045;51.194;7.268;2023-07-09T07:44:53;27.60;94.10
49218;DHT22;35045;51.194;7.268;2023-07-09T07:47:19;27.70;94.40
49218;DHT22;35045;51.194;7.268;2023-07-09T07:49:45;27.80;94.20
49218;DHT22;35045;51.194;7.268;2023-07-09T07:52:11;27.90;93.80
49218;DHT22;35045;51.194;7.268;2023-07-09T07:54:38;28.00;93.90
49218;DHT22;35045;51.194;7.268;2023-07-09T07:57:04;28.10;93.80
49218;DHT22;35045;51.194;7.268;2023-07-09T07:59:30;28.20;93.60
49218;DHT22;35045;51.194;7.268;2023-07-09T08:01:58;28.30;93.90
49218;DHT22;35045;51.194;7.268;2023-07-09T08:04:24;28.40;93.60
49218;DHT22;35045;51.194;7.268;2023-07-09T08:06:50;28.60;93.20
49218;DHT22;35045;51.194;7.268;2023-07-09T08:09:16;28.60;92.30
49218;DHT22;35045;51.194;7.268;2023-07-09T08:11:42;28.70;92.70
49218;DHT22;35045;51.194;7.268;2023-07-09T08:14:09;28.70;92.40
49218;DHT22;35045;51.194;7.268;2023-07-09T08:16:35;28.80;92.40
49218;DHT22;35045;51.194;7.268;2023-07-09T08:19:01;28.90;92.30
49218;DHT22;35045;51.194;7.268;2023-07-09T08:21:27;29.00;92.50
49218;DHT22;35045;51.194;7.268;2023-07-09T08:23:53;29.10;92.50
49218;DHT22;35045;51.194;7.268;2023-07-09T08:26:19;29.20;92.50
49218;DHT22;35045;51.194;7.268;2023-07-09T08:28:45;29.30;92.50
49218;DHT22;35045;51.194;7.268;2023-07-09T08:31:11;29.40;92.10
49218;DHT22;35045;51.194;7.268;2023-07-09T08:33:37;29.50;92.00
49218;DHT22;35045;51.194;7.268;2023-07-09T08:36:05;29.60;92.00
49218;DHT22;35045;51.194;7.268;2023-07-09T08:38:31;29.80;91.10
49218;DHT22;35045;51.194;7.268;2023-07-09T08:40:58;29.80;90.10
49218;DHT22;35045;51.194;7.268;2023-07-09T08:45:56;29.80;90.80
49218;DHT22;35045;51.194;7.268;2023-07-09T08:48:33;29.90;90.50
49218;DHT22;35045;51.194;7.268;2023-07-09T08:51:10;30.10;90.40
49218;DHT22;35045;51.194;7.268;2023-07-09T08:56:18;30.40;90.40
49218;DHT22;35045;51.194;7.268;2023-07-09T08:58:45;30.40;87.60
49218;DHT22;35045;51.194;7.268;2023-07-09T09:01:23;30.50;85.10
49218;DHT22;35045;51.194;7.268;2023-07-09T09:03:55;30.60;85.30
49218;DHT22;35045;51.194;7.268;2023-07-09T09:06:25;30.70;85.30
49218;DHT22;35045;51.194;7.268;2023-07-09T09:11:31;30.80;83.10
49218;DHT22;35045;51.194;7.268;2023-07-09T09:14:05;30.90;83.60
49218;DHT22;35045;51.194;7.268;2023-07-09T09:16:33;31.00;82.80
49218;DHT22;35045;51.194;7.268;2023-07-09T09:19:02;31.10;83.00
49218;DHT22;35045;51.194;7.268;2023-07-09T09:21:35;31.20;82.70
49218;DHT22;35045;51.194;7.268;2023-07-09T09:24:23;31.30;84.00
49218;DHT22;35045;51.194;7.268;2023-07-09T09:26:52;31.40;80.90
49218;DHT22;35045;51.194;7.268;2023-07-09T09:29:18;31.40;80.80
49218;DHT22;35045;51.194;7.268;2023-07-09T09:31:50;31.50;81.30
49218;DHT22;35045;51.194;7.268;2023-07-09T09:34:18;31.60;80.70
49218;DHT22;35045;51.194;7.268;2023-07-09T09:36:45;31.60;81.60
49218;DHT22;35045;51.194;7.268;2023-07-09T09:39:11;31.70;79.10
49218;DHT22;35045;51.194;7.268;2023-07-09T09:41:37;31.70;79.10
49218;DHT22;35045;51.194;7.268;2023-07-09T09:44:03;31.70;80.90
49218;DHT22;35045;51.194;7.268;2023-07-09T09:46:31;31.80;78.60
49218;DHT22;35045;51.194;7.268;2023-07-09T09:49:00;31.80;78.50
49218;DHT22;35045;51.194;7.268;2023-07-09T09:51:27;31.80;78.00
49218;DHT22;35045;51.194;7.268;2023-07-09T09:54:00;31.80;79.90
49218;DHT22;35045;51.194;7.268;2023-07-09T09:56:28;31.90;78.70
49218;DHT22;35045;51.194;7.268;2023-07-09T09:58:55;32.00;79.40
49218;DHT22;35045;51.194;7.268;2023-07-09T10:01:25;32.20;78.80
49218;DHT22;35045;51.194;7.268;2023-07-09T10:03:54;32.30;79.10
49218;DHT22;35045;51.194;7.268;2023-07-09T10:09:01;32.40;76.60
49218;DHT22;35045;51.194;7.268;2023-07-09T10:11:44;32.50;77.60
49218;DHT22;35045;51.194;7.268;2023-07-09T10:14:18;32.50;76.00
49218;DHT22;35045;51.194;7.268;2023-07-09T10:16:48;32.60;76.60
49218;DHT22;35045;51.194;7.268;2023-07-09T10:19:20;32.60;76.70
49218;DHT22;35045;51.194;7.268;2023-07-09T10:22:13;32.70;78.60
49218;DHT22;35045;51.194;7.268;2023-07-09T10:27:12;32.80;76.70
49218;DHT22;35045;51.194;7.268;2023-07-09T10:29:54;32.90;74.30
49218;DHT22;35045;51.194;7.268;2023-07-09T10:40:25;33.00;72.70
49218;DHT22;35045;51.194;7.268;2023-07-09T10:42:55;33.00;73.00
49218;DHT22;35045;51.194;7.268;2023-07-09T10:45:30;33.10;73.50
49218;DHT22;35045;51.194;7.268;2023-07-09T10:47:59;33.10;71.90
49218;DHT22;35045;51.194;7.268;2023-07-09T10:50:36;33.10;71.20
49218;DHT22;35045;51.194;7.268;2023-07-09T10:53:09;33.10;71.60
49218;DHT22;35045;51.194;7.268;2023-07-09T10:55:39;33.10;71.40
49218;DHT22;35045;51.194;7.268;2023-07-09T10:58:19;33.10;70.00
49218;DHT22;35045;51.194;7.268;2023-07-09T11:00:49;33.10;71.10
49218;DHT22;35045;51.194;7.268;2023-07-09T11:03:19;33.30;72.90
49218;DHT22;35045;51.194;7.268;2023-07-09T11:05:46;33.30;71.90
49218;DHT22;35045;51.194;7.268;2023-07-09T11:08:13;33.40;72.00
49218;DHT22;35045;51.194;7.268;2023-07-09T11:10:41;33.40;73.10
49218;DHT22;35045;51.194;7.268;2023-07-09T11:13:13;33.50;73.40
49218;DHT22;35045;51.194;7.268;2023-07-09T11:15:41;33.60;71.20
49218;DHT22;35045;51.194;7.268;2023-07-09T11:18:10;33.50;69.00
49218;DHT22;35045;51.194;7.268;2023-07-09T11:20:42;33.60;69.70
49218;DHT22;35045;51.194;7.268;2023-07-09T11:23:19;33.70;70.10
49218;DHT22;35045;51.194;7.268;2023-07-09T11:25:46;33.70;67.00
49218;DHT22;35045;51.194;7.268;2023-07-09T11:28:13;33.70;67.40
49218;DHT22;35045;51.194;7.268;2023-07-09T11:30:49;33.70;67.60
49218;DHT22;35045;51.194;7.268;2023-07-09T11:33:18;33.70;67.50
49218;DHT22;35045;51.194;7.268;2023-07-09T11:35:50;33.80;67.90
49218;DHT22;35045;51.194;7.268;2023-07-09T11:38:18;33.80;66.80
49218;DHT22;35045;51.194;7.268;2023-07-09T11:40:48;33.80;67.00
49218;DHT22;35045;51.194;7.268;2023-07-09T11:43:32;33.90;66.90
49218;DHT22;35045;51.194;7.268;2023-07-09T11:46:00;34.10;68.40
49218;DHT22;35045;51.194;7.268;2023-07-09T11:48:29;34.20;67.80
49218;DHT22;35045;51.194;7.268;2023-07-09T11:51:00;34.40;67.90
49218;DHT22;35045;51.194;7.268;2023-07-09T11:53:35;34.50;68.40
49218;DHT22;35045;51.194;7.268;2023-07-09T11:56:03;34.40;67.90
49218;DHT22;35045;51.194;7.268;2023-07-09T11:58:30;34.60;68.10
49218;DHT22;35045;51.194;7.268;2023-07-09T12:00:57;34.80;67.10
49218;DHT22;35045;51.194;7.268;2023-07-09T12:03:27;34.80;66.50
49218;DHT22;35045;51.194;7.268;2023-07-09T12:05:54;34.90;67.00
49218;DHT22;35045;51.194;7.268;2023-07-09T12:08:22;34.90;66.50
49218;DHT22;35045;51.194;7.268;2023-07-09T12:10:50;35.00;66.00
49218;DHT22;35045;51.194;7.268;2023-07-09T12:13:16;35.00;65.30
49218;DHT22;35045;51.194;7.268;2023-07-09T12:15:42;35.20;64.10
49218;DHT22;35045;51.194;7.268;2023-07-09T12:18:13;35.30;64.40
49218;DHT22;35045;51.194;7.268;2023-07-09T12:20:39;35.50;64.40
49218;DHT22;35045;51.194;7.268;2023-07-09T12:25:50;35.80;63.40
49218;DHT22;35045;51.194;7.268;2023-07-09T12:28:17;36.00;64.30
49218;DHT22;35045;51.194;7.268;2023-07-09T12:30:47;36.00;63.90
49218;DHT22;35045;51.194;7.268;2023-07-09T12:33:16;35.80;65.00
49218;DHT22;35045;51.194;7.268;2023-07-09T12:35:42;35.70;65.50
49218;DHT22;35045;51.194;7.268;2023-07-09T12:38:18;35.60;64.40
49218;DHT22;35045;51.194;7.268;2023-07-09T12:40:44;35.60;65.70
49218;DHT22;35045;51.194;7.268;2023-07-09T12:43:10;35.60;63.40
49218;DHT22;35045;51.194;7.268;2023-07-09T12:45:37;35.70;65.60
49218;DHT22;35045;51.194;7.268;2023-07-09T12:48:03;35.90;63.70
49218;DHT22;35045;51.194;7.268;2023-07-09T12:50:30;36.10;64.60
49218;DHT22;35045;51.194;7.268;2023-07-09T12:53:00;36.20;64.50
49218;DHT22;35045;51.194;7.268;2023-07-09T12:55:27;36.30;63.10
49218;DHT22;35045;51.194;7.268;2023-07-09T12:57:56;36.40;64.30
49218;DHT22;35045;51.194;7.268;2023-07-09T13:00:25;36.30;63.40
49218;DHT22;35045;51.194;7.268;2023-07-09T13:02:53;36.20;63.60
49218;DHT22;35045;51.194;7.268;2023-07-09T13:05:21;36.00;63.30
49218;DHT22;35045;51.194;7.268;2023-07-09T13:07:52;35.80;65.30
49218;DHT22;35045;51.194;7.268;2023-07-09T13:10:19;35.50;64.50
49218;DHT22;35045;51.194;7.268;2023-07-09T13:12:50;35.10;64.50
49218;DHT22;35045;51.194;7.268;2023-07-09T13:15:20;34.90;65.30
49218;DHT22;35045;51.194;7.268;2023-07-09T13:17:47;34.80;65.50
49218;DHT22;35045;51.194;7.268;2023-07-09T13:20:13;34.70;66.80
49218;DHT22;35045;51.194;7.268;2023-07-09T13:22:40;34.50;66.90
49218;DHT22;35045;51.194;7.268;2023-07-09T13:25:07;34.50;66.40
49218;DHT22;35045;51.194;7.268;2023-07-09T13:27:34;34.40;67.20
49218;DHT22;35045;51.194;7.268;2023-07-09T13:30:00;34.10;66.80
49218;DHT22;35045;51.194;7.268;2023-07-09T13:32:26;33.90;68.50
49218;DHT22;35045;51.194;7.268;2023-07-09T13:34:52;33.80;68.80
49218;DHT22;35045;51.194;7.268;2023-07-09T13:37:18;33.70;69.20
49218;DHT22;35045;51.194;7.268;2023-07-09T13:39:44;33.70;69.20
49218;DHT22;35045;51.194;7.268;2023-07-09T13:42:16;33.60;68.40
49218;DHT22;35045;51.194;7.268;2023-07-09T13:44:43;33.40;69.00
49218;DHT22;35045;51.194;7.268;2023-07-09T13:47:11;33.40;69.50
49218;DHT22;35045;51.194;7.268;2023-07-09T13:49:37;33.30;69.10
49218;DHT22;35045;51.194;7.268;2023-07-09T13:52:03;33.10;69.80
49218;DHT22;35045;51.194;7.268;2023-07-09T13:54:32;33.00;70.20
49218;DHT22;35045;51.194;7.268;2023-07-09T13:57:02;33.00;70.00
49218;DHT22;35045;51.194;7.268;2023-07-09T13:59:28;32.80;70.00
49218;DHT22;35045;51.194;7.268;2023-07-09T14:01:55;32.80;70.20
49218;DHT22;35045;51.194;7.268;2023-07-09T14:04:22;32.70;69.90
49218;DHT22;35045;51.194;7.268;2023-07-09T14:06:48;32.50;70.00
49218;DHT22;35045;51.194;7.268;2023-07-09T14:09:14;32.40;70.10
49218;DHT22;35045;51.194;7.268;2023-07-09T14:11:41;32.30;70.70
49218;DHT22;35045;51.194;7.268;2023-07-09T14:14:21;32.20;70.60
49218;DHT22;35045;51.194;7.268;2023-07-09T14:16:48;32.10;71.30
49218;DHT22;35045;51.194;7.268;2023-07-09T14:19:15;32.10;71.00
49218;DHT22;35045;51.194;7.268;2023-07-09T14:21:42;32.00;71.50
49218;DHT22;35045;51.194;7.268;2023-07-09T14:26:43;31.80;71.70
49218;DHT22;35045;51.194;7.268;2023-07-09T14:29:10;31.70;72.20
49218;DHT22;35045;51.194;7.268;2023-07-09T14:31:37;31.60;71.70
49218;DHT22;35045;51.194;7.268;2023-07-09T14:34:37;31.60;73.20
49218;DHT22;35045;51.194;7.268;2023-07-09T14:36:56;31.50;73.30
49218;DHT22;35045;51.194;7.268;2023-07-09T14:39:22;31.40;73.60
49218;DHT22;35045;51.194;7.268;2023-07-09T14:41:49;31.30;75.50
49218;DHT22;35045;51.194;7.268;2023-07-09T14:46:44;29.60;86.90
49218;DHT22;35045;51.194;7.268;2023-07-09T14:49:10;28.20;92.20
49218;DHT22;35045;51.194;7.268;2023-07-09T14:51:36;27.20;95.40
49218;DHT22;35045;51.194;7.268;2023-07-09T14:54:04;26.60;99.10
49218;DHT22;35045;51.194;7.268;2023-07-09T14:56:30;26.00;99.90
49218;DHT22;35045;51.194;7.268;2023-07-09T14:58:56;25.70;99.90
49218;DHT22;35045;51.194;7.268;2023-07-09T15:01:22;24.90;99.90
49218;DHT22;35045;51.194;7.268;2023-07-09T15:03:50;24.30;99.90
49218;DHT22;35045;51.194;7.268;2023-07-09T15:06:16;23.40;99.90
49218;DHT22;35045;51.194;7.268;2023-07-09T15:08:42;22.40;99.90
49218;DHT22;35045;51.194;7.268;2023-07-09T15:11:08;21.50;99.90
49218;DHT22;35045;51.194;7.268;2023-07-09T15:13:35;21.20;99.90
49218;DHT22;35045;51.194;7.268;2023-07-09T15:16:02;21.00;99.90
49218;DHT22;35045;51.194;7.268;2023-07-09T15:18:29;20.70;99.90
49218;DHT22;35045;51.194;7.268;2023-07-09T15:20:58;20.60;99.90
49218;DHT22;35045;51.194;7.268;2023-07-09T15:23:26;20.70;99.90
49218;DHT22;35045;51.194;7.268;2023-07-09T15:25:52;20.70;99.90
49218;DHT22;35045;51.194;7.268;2023-07-09T15:28:18;20.90;99.90
49218;DHT22;35045;51.194;7.268;2023-07-09T15:30:45;21.10;99.90
49218;DHT22;35045;51.194;7.268;2023-07-09T15:33:15;21.30;99.90
49218;DHT22;35045;51.194;7.268;2023-07-09T15:35:42;21.30;99.90
49218;DHT22;35045;51.194;7.268;2023-07-09T15:40:43;21.10;99.90
49218;DHT22;35045;51.194;7.268;2023-07-09T15:43:09;21.10;99.90
49218;DHT22;35045;51.194;7.268;2023-07-09T15:45:37;21.20;99.90
49218;DHT22;35045;51.194;7.268;2023-07-09T15:48:03;21.30;99.90
49218;DHT22;35045;51.194;7.268;2023-07-09T15:50:29;21.40;99.90
49218;DHT22;35045;51.194;7.268;2023-07-09T15:52:56;21.60;99.90
49218;DHT22;35045;51.194;7.268;2023-07-09T15:55:25;21.70;99.90
49218;DHT22;35045;51.194;7.268;2023-07-09T15:57:53;21.90;99.90
49218;DHT22;35045;51.194;7.268;2023-07-09T16:00:20;22.00;99.90
49218;DHT22;35045;51.194;7.268;2023-07-09T16:02:47;22.10;99.90
49218;DHT22;35045;51.194;7.268;2023-07-09T16:05:21;22.20;99.90
49218;DHT22;35045;51.194;7.268;2023-07-09T16:07:49;22.40;99.90
49218;DHT22;35045;51.194;7.268;2023-07-09T16:10:16;22.60;99.90